Time;durP1;ratioP1;P1;durP2;ratioP2;P2;SDS_P1;SDS_P2;PMS_P1;PMS_P2;Temp;Humidity;BMP_temperature;BMP_pressure;BME280_temperature;BME280_humidity;BME280_pressure;Samples;Min_cycle;Max_cycle;Signal;HPM_P1;HPM_P2
2022/11/29 00:02:20;;;;;;;46.70;15.43;;;1.80;99.90;;;;;;5073197;28;20232;-66
2022/11/29 00:04:47;;;;;;;35.63;14.33;;;1.80;99.90;;;;;;5073266;28;20205;-67
2022/11/29 00:07:13;;;;;;;48.63;16.33;;;1.80;99.90;;;;;;5073018;28;20205;-65
2022/11/29 00:09:40;;;;;;;45.87;16.17;;;1.80;99.90;;;;;;5073351;28;20229;-66
2022/11/29 00:12:14;;;;;;;57.30;15.73;;;1.80;99.90;;;;;;5078595;28;20218;-66
2022/11/29 00:14:41;;;;;;;45.43;15.13;;;1.80;99.90;;;;;;5093389;28;20188;-66
2022/11/29 00:17:08;;;;;;;51.27;16.63;;;1.80;99.90;;;;;;5092827;28;20204;-65
2022/11/29 00:19:37;;;;;;;64.10;18.30;;;1.80;99.90;;;;;;5093257;28;20220;-66
2022/11/29 00:22:04;;;;;;;48.90;15.10;;;1.70;99.90;;;;;;5093265;28;20228;-66
2022/11/29 00:24:32;;;;;;;64.17;16.77;;;1.70;99.90;;;;;;5092111;28;20567;-66
2022/11/29 00:27:00;;;;;;;41.03;13.83;;;1.70;99.90;;;;;;5093276;28;20208;-66
2022/11/29 00:29:28;;;;;;;39.23;14.33;;;1.70;99.90;;;;;;5092844;28;20691;-67
2022/11/29 00:31:54;;;;;;;55.60;15.33;;;1.70;99.90;;;;;;5092789;28;20210;-65
2022/11/29 00:34:21;;;;;;;46.57;15.77;;;1.70;99.90;;;;;;5092765;28;20204;-66
2022/11/29 00:36:49;;;;;;;50.53;15.07;;;1.70;99.90;;;;;;5093088;28;20249;-65
2022/11/29 00:39:16;;;;;;;58.00;15.90;;;1.70;99.90;;;;;;5092974;28;20210;-66
2022/11/29 00:41:43;;;;;;;61.97;15.73;;;1.70;99.90;;;;;;5092520;28;20224;-66
2022/11/29 00:44:10;;;;;;;60.70;14.93;;;1.70;99.90;;;;;;5092241;28;20215;-65
2022/11/29 00:46:38;;;;;;;61.73;15.60;;;1.70;99.90;;;;;;5092251;28;20204;-66
2022/11/29 00:49:05;;;;;;;75.27;16.97;;;1.70;99.90;;;;;;5091604;28;20230;-66
2022/11/29 00:51:32;;;;;;;59.83;15.67;;;1.70;99.90;;;;;;5088757;28;20525;-66
2022/11/29 00:54:00;;;;;;;80.40;17.50;;;1.70;99.90;;;;;;5089092;28;20575;-65
2022/11/29 00:56:27;;;;;;;120.37;20.10;;;1.70;99.90;;;;;;5089366;28;20200;-66
2022/11/29 00:58:54;;;;;;;75.43;18.00;;;1.80;99.90;;;;;;5092685;28;20568;-66
2022/11/29 01:01:20;;;;;;;106.17;18.47;;;1.80;99.90;;;;;;5089213;28;20215;-66
2022/11/29 01:03:47;;;;;;;39.07;13.00;;;1.70;99.90;;;;;;5072163;28;20204;-65
2022/11/29 01:06:16;;;;;;;60.33;16.93;;;1.70;99.90;;;;;;5071664;28;20211;-66
2022/11/29 01:08:44;;;;;;;42.53;13.20;;;1.70;99.90;;;;;;5071645;28;20200;-67
2022/11/29 01:11:14;;;;;;;49.20;15.43;;;1.70;99.90;;;;;;5073541;28;20196;-66
2022/11/29 01:13:44;;;;;;;43.20;14.10;;;1.70;99.90;;;;;;5091259;28;20242;-66
2022/11/29 01:16:11;;;;;;;55.67;15.53;;;1.70;99.90;;;;;;5092321;28;20535;-65
2022/11/29 01:18:39;;;;;;;42.90;14.17;;;1.70;99.90;;;;;;5092466;28;20564;-66
2022/11/29 01:21:08;;;;;;;63.33;16.03;;;1.70;99.90;;;;;;5091132;28;20231;-66
2022/11/29 01:23:36;;;;;;;47.10;13.77;;;1.70;99.90;;;;;;5092116;28;20214;-66
2022/11/29 01:26:05;;;;;;;71.30;15.70;;;1.70;99.90;;;;;;5092048;28;20211;-66
2022/11/29 01:28:34;;;;;;;63.90;16.00;;;1.70;99.90;;;;;;5092009;28;20206;-67
2022/11/29 01:31:06;;;;;;;50.73;14.60;;;1.70;99.90;;;;;;5091093;28;20549;-66
2022/11/29 01:33:33;;;;;;;44.60;14.03;;;1.70;99.90;;;;;;5092241;28;20245;-66
2022/11/29 01:36:00;;;;;;;52.70;15.07;;;1.70;99.90;;;;;;5091753;28;20227;-66
2022/11/29 01:38:27;;;;;;;64.10;15.43;;;1.70;99.90;;;;;;5092097;28;20204;-66
2022/11/29 01:41:00;;;;;;;63.73;15.00;;;1.70;99.90;;;;;;5091359;28;20220;-66
2022/11/29 01:43:28;;;;;;;53.07;13.47;;;1.60;99.90;;;;;;5091826;28;20188;-66
2022/11/29 01:45:56;;;;;;;49.57;13.47;;;1.60;99.90;;;;;;5091733;28;20204;-66
2022/11/29 01:48:28;;;;;;;86.60;15.83;;;1.60;99.90;;;;;;5089292;28;20203;-66
2022/11/29 01:50:58;;;;;;;74.10;14.57;;;1.60;99.90;;;;;;5092134;28;20224;-66
2022/11/29 01:53:25;;;;;;;106.77;16.57;;;1.60;99.90;;;;;;5092241;28;20196;-66
2022/11/29 01:55:54;;;;;;;83.07;15.70;;;1.60;99.90;;;;;;5089810;28;20204;-66
2022/11/29 01:58:22;;;;;;;73.10;13.17;;;1.60;99.90;;;;;;5092215;28;20667;-66
2022/11/29 02:00:48;;;;;;;70.83;13.23;;;1.60;99.90;;;;;;5091737;28;20207;-65
2022/11/29 02:03:18;;;;;;;104.60;16.83;;;1.60;99.90;;;;;;5091663;28;20747;-67
2022/11/29 02:05:47;;;;;;;121.40;16.97;;;1.60;99.90;;;;;;5090067;28;20674;-67
2022/11/29 02:08:18;;;;;;;98.17;15.93;;;1.60;99.90;;;;;;5091758;28;20208;-66
2022/11/29 02:10:57;;;;;;;102.53;16.00;;;1.60;99.90;;;;;;5091727;28;20200;-67
2022/11/29 02:13:37;;;;;;;68.37;14.37;;;1.60;99.90;;;;;;5092023;28;20194;-66
2022/11/29 02:16:11;;;;;;;89.30;15.53;;;1.50;99.90;;;;;;5090748;28;20610;-65
2022/11/29 02:18:50;;;;;;;53.90;14.67;;;1.60;99.90;;;;;;5091881;28;20187;-66
2022/11/29 02:21:31;;;;;;;51.73;15.30;;;1.60;99.90;;;;;;5091889;28;20208;-67
2022/11/29 02:24:13;;;;;;;74.20;16.17;;;1.50;99.90;;;;;;5090148;28;20203;-66
2022/11/29 02:27:02;;;;;;;45.83;14.40;;;1.50;99.90;;;;;;5090018;28;20200;-66
2022/11/29 02:30:02;;;;;;;52.13;15.63;;;1.50;99.90;;;;;;5091960;28;20540;-66
2022/11/29 02:33:10;;;;;;;45.37;14.00;;;1.50;99.90;;;;;;5090031;28;20206;-67
2022/11/29 02:35:56;;;;;;;66.47;16.23;;;1.50;99.90;;;;;;5091401;28;20279;-65
2022/11/29 02:38:43;;;;;;;61.93;15.27;;;1.50;99.90;;;;;;5091452;28;20191;-67
2022/11/29 02:41:29;;;;;;;44.23;14.27;;;1.50;99.90;;;;;;5091156;28;20218;-67
2022/11/29 02:44:21;;;;;;;36.73;12.73;;;1.50;99.90;;;;;;5091389;28;20234;-65
2022/11/29 02:47:00;;;;;;;31.07;12.10;;;1.50;99.90;;;;;;5091979;28;20193;-66
2022/11/29 06:41:01;;;;;;;23.87;13.53;;;0.50;99.90;;;;;;5582851;22;20592;-64
2022/11/29 06:43:29;;;;;;;27.13;13.87;;;0.50;99.90;;;;;;5069002;28;20204;-65
2022/11/29 06:46:03;;;;;;;21.70;13.20;;;0.50;99.90;;;;;;5069478;28;20204;-64
2022/11/29 06:48:38;;;;;;;24.00;12.87;;;0.60;99.90;;;;;;5069204;28;20196;-64
2022/11/29 06:51:10;;;;;;;19.87;12.20;;;0.60;99.90;;;;;;5069231;28;20283;-65
2022/11/29 06:53:43;;;;;;;20.80;12.67;;;0.70;99.90;;;;;;5069137;28;20203;-64
2022/11/29 06:56:22;;;;;;;26.73;13.87;;;0.70;99.90;;;;;;5069223;28;20189;-64
2022/11/29 06:58:57;;;;;;;22.33;12.43;;;0.70;99.90;;;;;;5069094;28;20193;-64
2022/11/29 07:01:32;;;;;;;20.03;11.73;;;0.70;99.90;;;;;;5067996;28;20188;-65
2022/11/29 07:04:16;;;;;;;22.10;12.53;;;0.80;99.90;;;;;;5067919;28;20185;-64
2022/11/29 07:06:44;;;;;;;21.83;13.10;;;0.80;99.90;;;;;;5068229;28;20557;-65
2022/11/29 07:09:14;;;;;;;25.50;13.93;;;0.80;99.90;;;;;;5067980;28;20338;-65
2022/11/29 07:11:43;;;;;;;19.67;12.70;;;0.90;99.90;;;;;;5068581;28;20564;-65
2022/11/29 07:14:11;;;;;;;21.33;13.20;;;0.90;99.90;;;;;;5068161;28;20209;-64
2022/11/29 07:16:47;;;;;;;26.60;13.10;;;0.90;99.90;;;;;;5068212;28;20208;-63
2022/11/29 07:19:23;;;;;;;25.13;13.20;;;0.90;99.90;;;;;;5068284;28;20212;-64
2022/11/29 07:21:58;;;;;;;23.17;13.20;;;0.90;99.90;;;;;;5068591;28;20318;-65
2022/11/29 07:24:39;;;;;;;27.07;14.70;;;0.90;99.90;;;;;;5068611;28;20555;-65
2022/11/29 07:27:14;;;;;;;24.90;14.27;;;0.90;99.90;;;;;;5068568;28;20192;-64
2022/11/29 07:29:56;;;;;;;23.83;13.73;;;0.90;99.90;;;;;;5068208;28;20279;-64
2022/11/29 07:32:33;;;;;;;21.93;13.17;;;0.90;99.90;;;;;;5067872;28;20188;-66
2022/11/29 07:35:05;;;;;;;23.47;13.87;;;0.90;99.90;;;;;;5068405;28;20301;-63
2022/11/29 07:37:37;;;;;;;27.33;14.53;;;0.90;99.90;;;;;;5068220;28;20193;-64
2022/11/29 07:40:13;;;;;;;21.30;12.83;;;0.90;99.90;;;;;;5067976;28;20212;-65
2022/11/29 07:42:54;;;;;;;25.27;13.63;;;0.90;99.90;;;;;;5068376;28;20567;-66
2022/11/29 07:45:25;;;;;;;23.53;13.37;;;0.90;99.90;;;;;;5067974;28;20189;-65
2022/11/29 07:47:52;;;;;;;25.07;14.17;;;0.90;99.90;;;;;;5067680;28;20199;-65
2022/11/29 07:50:20;;;;;;;26.13;14.13;;;0.90;99.90;;;;;;5065804;28;20200;-65
2022/11/29 07:52:47;;;;;;;25.07;14.97;;;0.80;99.90;;;;;;5054824;28;20209;-64
2022/11/29 07:55:15;;;;;;;25.93;14.23;;;0.80;99.90;;;;;;5054583;28;20216;-64
2022/11/29 07:57:43;;;;;;;27.07;14.37;;;0.80;99.90;;;;;;5054799;28;20205;-65
2022/11/29 08:00:11;;;;;;;28.13;15.27;;;0.80;99.90;;;;;;5054547;28;20225;-65
2022/11/29 08:02:38;;;;;;;29.57;14.57;;;0.80;99.90;;;;;;5054761;28;20246;-64
2022/11/29 08:05:05;;;;;;;28.00;15.07;;;0.90;99.90;;;;;;5054475;28;20216;-65
2022/11/29 08:07:34;;;;;;;29.33;16.07;;;0.90;99.90;;;;;;5054298;28;20224;-64
2022/11/29 08:10:01;;;;;;;29.53;14.90;;;0.90;99.90;;;;;;5054303;28;20208;-65
2022/11/29 08:12:28;;;;;;;34.90;18.20;;;0.90;99.90;;;;;;5054440;28;20546;-63
2022/11/29 08:14:56;;;;;;;31.10;14.80;;;0.90;99.90;;;;;;5054408;28;20205;-64
2022/11/29 08:17:24;;;;;;;34.30;15.50;;;0.90;99.90;;;;;;5053921;28;20210;-64
2022/11/29 08:19:51;;;;;;;34.13;15.07;;;0.90;99.90;;;;;;5053906;28;20325;-64
2022/11/29 08:22:18;;;;;;;29.80;15.00;;;1.00;99.90;;;;;;5054142;28;20205;-64
2022/11/29 08:24:45;;;;;;;32.17;15.03;;;1.00;99.90;;;;;;5054419;28;20588;-64
2022/11/29 08:27:11;;;;;;;32.97;15.67;;;0.90;99.90;;;;;;5053957;28;20554;-65
2022/11/29 08:29:38;;;;;;;31.70;15.30;;;0.90;99.90;;;;;;5054163;28;20202;-63
2022/11/29 08:32:07;;;;;;;32.47;15.40;;;0.90;99.90;;;;;;5053867;28;20202;-65
2022/11/29 08:34:34;;;;;;;26.60;13.80;;;0.90;99.90;;;;;;5053992;28;20632;-65
2022/11/29 08:37:01;;;;;;;29.80;14.10;;;0.90;99.90;;;;;;5053444;28;20201;-65
2022/11/29 08:39:28;;;;;;;29.80;15.20;;;0.80;99.90;;;;;;5053709;28;20226;-64
2022/11/29 08:41:54;;;;;;;31.70;15.37;;;0.80;99.90;;;;;;5053432;28;20233;-64
2022/11/29 08:44:22;;;;;;;28.23;14.53;;;0.80;99.90;;;;;;5053608;28;20661;-65
2022/11/29 08:49:34;;;;;;;27.17;13.80;;;0.90;99.90;;;;;;5053600;28;20184;-63
2022/11/29 08:54:45;;;;;;;30.23;14.47;;;0.80;99.90;;;;;;5053288;28;20195;-65
2022/11/29 08:57:12;;;;;;;27.37;13.90;;;0.80;99.90;;;;;;5053311;28;20205;-65
2022/11/29 08:59:39;;;;;;;31.77;14.80;;;0.80;99.90;;;;;;5053296;28;20225;-65
2022/11/29 09:02:06;;;;;;;28.63;15.07;;;0.90;99.90;;;;;;5052607;28;20560;-65
2022/11/29 09:04:34;;;;;;;33.87;15.87;;;0.90;99.90;;;;;;5052459;28;20205;-65
2022/11/29 09:07:01;;;;;;;36.30;17.33;;;0.90;99.90;;;;;;5053086;28;20209;-64
2022/11/29 09:09:28;;;;;;;34.20;16.67;;;0.90;99.90;;;;;;5053112;28;20315;-64
2022/11/29 09:11:54;;;;;;;36.27;18.30;;;1.00;99.90;;;;;;5052884;28;20221;-66
2022/11/29 09:14:21;;;;;;;33.83;16.43;;;1.00;99.90;;;;;;5053279;28;20208;-65
2022/11/29 09:16:48;;;;;;;32.80;16.17;;;0.90;99.90;;;;;;5053310;28;20301;-65
2022/11/29 09:19:15;;;;;;;31.73;15.23;;;0.90;99.90;;;;;;5052967;28;20232;-64
2022/11/29 09:21:43;;;;;;;28.33;14.40;;;0.90;99.90;;;;;;5053103;28;20256;-65
2022/11/29 09:24:10;;;;;;;28.70;14.73;;;0.90;99.90;;;;;;5052643;28;20201;-65
2022/11/29 09:26:39;;;;;;;26.83;14.87;;;0.90;99.90;;;;;;5053094;28;20635;-64
2022/11/29 09:29:06;;;;;;;33.67;15.30;;;0.80;99.90;;;;;;5052883;28;20568;-65
2022/11/29 09:31:34;;;;;;;33.10;16.30;;;0.80;99.90;;;;;;5052529;28;20229;-65
2022/11/29 09:34:01;;;;;;;41.30;16.87;;;0.80;99.90;;;;;;5052690;28;20210;-65
2022/11/29 09:36:29;;;;;;;33.47;17.40;;;0.90;99.90;;;;;;5052756;28;20231;-65
2022/11/29 09:38:58;;;;;;;33.67;16.37;;;0.90;99.90;;;;;;5050255;28;20202;-64
2022/11/29 09:41:38;;;;;;;34.40;15.73;;;0.90;99.90;;;;;;5050997;28;20736;-64
2022/11/29 09:44:10;;;;;;;35.57;18.40;;;0.90;99.90;;;;;;5048048;28;20256;-64
2022/11/29 09:46:45;;;;;;;36.77;19.10;;;0.90;99.90;;;;;;5042749;28;20216;-65
2022/11/29 09:49:40;;;;;;;47.33;20.03;;;0.90;99.90;;;;;;5032403;28;20656;-68
2022/11/29 09:52:16;;;;;;;36.93;18.37;;;0.90;99.90;;;;;;5042772;28;20260;-67
2022/11/29 09:54:51;;;;;;;29.37;17.40;;;0.90;99.90;;;;;;5032183;28;20252;-68
2022/11/29 09:57:18;;;;;;;28.97;16.57;;;0.90;99.90;;;;;;5048522;28;20655;-66
2022/11/29 09:59:48;;;;;;;29.63;16.50;;;0.90;99.90;;;;;;5033789;28;20312;-66
2022/11/29 10:02:18;;;;;;;30.87;16.30;;;0.90;99.90;;;;;;5032690;28;20201;-67
2022/11/29 10:04:49;;;;;;;32.40;17.33;;;0.90;99.90;;;;;;5032666;28;20680;-67
2022/11/29 10:07:20;;;;;;;27.07;16.30;;;0.90;99.90;;;;;;5037370;28;20235;-68
2022/11/29 10:09:54;;;;;;;27.03;15.87;;;0.90;99.90;;;;;;5050921;28;20240;-67
2022/11/29 10:12:26;;;;;;;29.93;16.23;;;0.90;99.90;;;;;;5049298;28;20209;-68
2022/11/29 10:15:00;;;;;;;30.17;15.83;;;0.90;99.90;;;;;;5050873;28;20193;-67
2022/11/29 10:17:34;;;;;;;26.13;15.53;;;0.90;99.90;;;;;;5047518;28;20231;-68
2022/11/29 10:20:06;;;;;;;28.13;15.87;;;0.90;99.90;;;;;;5034143;28;20220;-67
2022/11/29 10:22:40;;;;;;;28.70;15.60;;;0.90;99.90;;;;;;5051888;28;20190;-67
2022/11/29 15:18:53;;;;;;;39.70;23.63;;;0.10;99.90;;;;;;5085402;27;21101;-63
2022/11/29 15:21:30;;;;;;;46.00;26.57;;;0.10;99.90;;;;;;5558377;22;20234;-67
2022/11/29 15:24:01;;;;;;;42.57;21.80;;;0.20;99.90;;;;;;5083350;28;20215;-66
2022/11/29 15:26:28;;;;;;;38.63;22.23;;;0.30;99.90;;;;;;5085088;28;20604;-67
2022/11/29 15:29:12;;;;;;;34.73;19.77;;;0.30;99.90;;;;;;5107170;28;20618;-66
2022/11/29 15:31:41;;;;;;;30.57;18.03;;;0.40;99.90;;;;;;5109272;28;20271;-66
2022/11/29 15:34:20;;;;;;;27.03;15.97;;;0.50;99.90;;;;;;5108467;28;20211;-66
2022/11/29 15:36:47;;;;;;;29.37;16.10;;;0.50;99.90;;;;;;5107200;28;20225;-66
2022/11/29 15:39:26;;;;;;;28.17;16.60;;;0.50;99.90;;;;;;5107732;28;20210;-67
2022/11/29 15:41:52;;;;;;;26.50;15.23;;;0.50;99.90;;;;;;5107416;28;20673;-66
2022/11/29 15:44:22;;;;;;;24.60;14.47;;;0.60;99.90;;;;;;5108514;28;20200;-67
2022/11/29 15:46:48;;;;;;;22.57;14.30;;;0.60;99.90;;;;;;5105862;28;20598;-66
2022/11/29 15:49:20;;;;;;;27.63;15.33;;;0.60;99.90;;;;;;5109510;28;20561;-68
2022/11/29 15:51:49;;;;;;;25.30;14.57;;;0.60;99.90;;;;;;5109217;28;20662;-67
2022/11/29 15:54:23;;;;;;;24.93;14.43;;;0.60;99.90;;;;;;5109091;28;20204;-66
2022/11/29 15:56:53;;;;;;;23.43;14.10;;;0.60;99.90;;;;;;5108735;28;20218;-66
2022/11/29 15:59:30;;;;;;;22.63;13.50;;;0.70;99.90;;;;;;5109300;28;20195;-66
2022/11/29 16:02:02;;;;;;;19.83;13.13;;;0.60;99.90;;;;;;5109225;28;20582;-66
2022/11/29 16:04:31;;;;;;;22.67;14.20;;;0.70;99.90;;;;;;5109053;28;20203;-66
2022/11/29 16:06:58;;;;;;;26.20;15.03;;;0.60;99.90;;;;;;5106830;28;20198;-66
2022/11/29 16:09:31;;;;;;;24.77;14.60;;;0.60;99.90;;;;;;5108430;28;20200;-67
2022/11/29 16:11:59;;;;;;;21.67;14.53;;;0.60;99.90;;;;;;5109055;28;20196;-68
2022/11/29 16:14:27;;;;;;;22.87;14.87;;;0.60;99.90;;;;;;5108624;28;20290;-68
2022/11/29 16:16:57;;;;;;;23.83;14.47;;;0.60;99.90;;;;;;5108813;28;20220;-68
2022/11/29 16:19:33;;;;;;;26.47;15.87;;;0.60;99.90;;;;;;5109535;28;20203;-69
2022/11/29 16:22:12;;;;;;;31.07;16.47;;;0.60;99.90;;;;;;5101460;28;20243;-67
2022/11/29 16:24:45;;;;;;;25.90;16.13;;;0.60;99.90;;;;;;5107206;28;20619;-65
2022/11/29 16:27:13;;;;;;;25.87;14.43;;;0.60;99.90;;;;;;5108987;28;20188;-65
2022/11/29 16:29:44;;;;;;;28.03;15.23;;;0.60;99.90;;;;;;5095414;28;20228;-63
2022/11/29 16:32:19;;;;;;;28.07;17.17;;;0.60;99.90;;;;;;5095123;28;20191;-64
2022/11/29 16:34:47;;;;;;;33.20;18.37;;;0.60;99.90;;;;;;5094796;28;20192;-65
2022/11/29 16:37:17;;;;;;;29.00;17.33;;;0.60;99.90;;;;;;5095087;28;20235;-67
2022/11/29 16:39:47;;;;;;;24.70;15.47;;;0.60;99.90;;;;;;5094915;28;20621;-66
2022/11/29 16:42:16;;;;;;;28.27;16.07;;;0.60;99.90;;;;;;5095089;28;20636;-64
2022/11/29 16:45:04;;;;;;;24.93;14.70;;;0.60;99.90;;;;;;5094195;28;20210;-63
2022/11/29 16:47:32;;;;;;;26.63;15.80;;;0.60;99.90;;;;;;5094294;28;20204;-67
2022/11/29 16:50:15;;;;;;;27.13;16.13;;;0.60;99.90;;;;;;5094443;28;20204;-65
2022/11/29 16:52:42;;;;;;;29.47;17.20;;;0.60;99.90;;;;;;5094446;28;20199;-64
2022/11/29 16:55:09;;;;;;;28.30;16.57;;;0.60;99.90;;;;;;5094581;28;20204;-64
2022/11/29 16:57:36;;;;;;;26.83;15.90;;;0.70;99.90;;;;;;5092716;28;20586;-64
2022/11/29 17:00:11;;;;;;;25.03;16.07;;;0.60;99.90;;;;;;5093178;28;20222;-64
2022/11/29 17:02:38;;;;;;;27.63;16.10;;;0.60;99.90;;;;;;5092987;28;20199;-67
2022/11/29 17:05:05;;;;;;;28.73;16.87;;;0.60;99.90;;;;;;5091859;28;20674;-62
2022/11/29 17:07:37;;;;;;;32.67;19.00;;;0.60;99.90;;;;;;5094383;28;20223;-67
2022/11/29 17:10:05;;;;;;;27.20;16.70;;;0.60;99.90;;;;;;5093406;28;20311;-64
2022/11/29 17:12:32;;;;;;;28.03;17.67;;;0.70;99.90;;;;;;5093661;28;20212;-65
2022/11/29 17:14:59;;;;;;;25.93;16.57;;;0.70;99.90;;;;;;5093798;28;20212;-64
2022/11/29 17:17:26;;;;;;;27.67;17.63;;;0.70;99.90;;;;;;5093937;28;20220;-64
2022/11/29 17:19:53;;;;;;;33.47;18.90;;;0.70;99.90;;;;;;5093310;28;20204;-64
2022/11/29 17:22:20;;;;;;;25.73;16.27;;;0.70;99.90;;;;;;5091428;28;20718;-66
2022/11/29 17:24:48;;;;;;;28.57;18.43;;;0.70;99.90;;;;;;5080094;28;20630;-65
2022/11/29 17:27:15;;;;;;;32.23;19.57;;;0.70;99.90;;;;;;5089664;28;20618;-64
2022/11/29 17:29:41;;;;;;;24.60;15.93;;;0.60;99.90;;;;;;5093570;28;20570;-63
2022/11/29 17:32:08;;;;;;;31.97;17.83;;;0.70;99.90;;;;;;5094097;28;20218;-69
2022/11/29 17:34:35;;;;;;;26.27;16.80;;;0.70;99.90;;;;;;5093189;28;20212;-69
2022/11/29 17:37:02;;;;;;;23.57;14.77;;;0.70;99.90;;;;;;5094159;28;20216;-69
2022/11/29 17:39:29;;;;;;;23.53;14.50;;;0.70;99.90;;;;;;5094209;28;20208;-68
2022/11/29 17:41:57;;;;;;;27.17;14.93;;;0.70;99.90;;;;;;5093540;28;20200;-66
2022/11/29 17:44:23;;;;;;;22.83;13.90;;;0.70;99.90;;;;;;5092823;28;20200;-69
2022/11/29 17:46:50;;;;;;;22.87;14.67;;;0.70;99.90;;;;;;5086920;28;20224;-66
2022/11/29 17:49:17;;;;;;;24.33;14.33;;;0.70;99.90;;;;;;5092817;28;20214;-68
2022/11/29 17:51:44;;;;;;;21.37;12.97;;;0.70;99.90;;;;;;5092411;28;20231;-69
2022/11/29 17:54:11;;;;;;;21.47;13.43;;;0.70;99.90;;;;;;5073620;28;20211;-66
2022/11/29 17:56:38;;;;;;;22.00;13.33;;;0.70;99.90;;;;;;5080579;28;20199;-67
2022/11/29 17:59:06;;;;;;;20.43;12.13;;;0.70;99.90;;;;;;5094148;28;20226;-68
2022/11/29 18:01:34;;;;;;;20.33;12.63;;;0.70;99.90;;;;;;5093487;28;20208;-68
2022/11/29 18:04:03;;;;;;;20.17;12.60;;;0.60;99.90;;;;;;5093970;28;20338;-68
2022/11/29 18:06:33;;;;;;;19.93;12.50;;;0.70;99.90;;;;;;5092821;28;20446;-67
2022/11/29 18:09:01;;;;;;;15.33;9.93;;;0.70;99.90;;;;;;5093968;28;20188;-68
2022/11/29 18:11:30;;;;;;;18.93;11.13;;;0.70;99.90;;;;;;5092619;28;20235;-67
2022/11/29 18:13:58;;;;;;;19.20;12.77;;;0.60;99.90;;;;;;5092171;28;20444;-67
2022/11/29 18:16:28;;;;;;;19.03;11.93;;;0.60;99.90;;;;;;5090068;28;20211;-68
2022/11/29 18:18:56;;;;;;;16.97;11.07;;;0.60;99.90;;;;;;5091315;28;20565;-69
2022/11/29 18:21:23;;;;;;;17.20;10.73;;;0.60;99.90;;;;;;5090714;28;20235;-68
2022/11/29 18:23:50;;;;;;;16.07;10.20;;;0.60;99.90;;;;;;5093132;28;20212;-67
2022/11/29 22:36:19;;;;;;;23.03;14.43;;;-0.70;99.90;;;;;;5562880;22;20596;-65
2022/11/29 22:38:46;;;;;;;21.53;13.17;;;-0.70;99.90;;;;;;5068904;28;20558;-67
2022/11/29 22:41:15;;;;;;;22.50;13.53;;;-0.60;99.90;;;;;;5067019;28;20227;-65
2022/11/29 22:43:42;;;;;;;23.17;13.53;;;-0.50;99.90;;;;;;5063037;28;20282;-67
2022/11/29 22:46:11;;;;;;;20.10;12.30;;;-0.50;99.90;;;;;;5068805;28;20225;-66
2022/11/29 22:48:38;;;;;;;21.10;12.27;;;-0.40;99.90;;;;;;5049558;28;20689;-67
2022/11/29 22:51:07;;;;;;;20.07;12.50;;;-0.40;99.90;;;;;;5049040;28;20563;-66
2022/11/29 22:53:35;;;;;;;19.83;11.63;;;-0.30;99.90;;;;;;5048844;28;20216;-67
2022/11/29 22:56:04;;;;;;;21.93;12.70;;;-0.20;99.90;;;;;;5048948;28;20580;-65
2022/11/29 22:58:31;;;;;;;20.83;12.37;;;-0.20;99.90;;;;;;5048594;28;20206;-67
2022/11/29 23:01:02;;;;;;;20.40;12.97;;;-0.20;99.90;;;;;;5048988;28;20216;-66
2022/11/29 23:03:29;;;;;;;19.87;13.07;;;-0.10;99.90;;;;;;5048257;28;20618;-66
2022/11/29 23:06:01;;;;;;;22.30;13.93;;;-0.10;99.90;;;;;;5048552;28;20201;-66
2022/11/29 23:08:28;;;;;;;22.47;13.73;;;0.00;99.90;;;;;;5052112;28;20629;-66
2022/11/29 23:10:57;;;;;;;23.27;13.57;;;0.00;99.90;;;;;;5048225;28;20209;-65
2022/11/29 23:13:24;;;;;;;26.13;14.70;;;0.00;99.90;;;;;;5048437;28;20208;-66
2022/11/29 23:15:51;;;;;;;26.23;14.87;;;0.00;99.90;;;;;;5048140;28;20229;-67
2022/11/29 23:18:18;;;;;;;26.77;15.50;;;0.00;99.90;;;;;;5048485;28;20216;-66
2022/11/29 23:20:45;;;;;;;29.43;15.70;;;0.00;99.90;;;;;;5048091;28;20198;-66
2022/11/29 23:23:11;;;;;;;24.67;14.80;;;0.00;99.90;;;;;;5048595;28;20206;-66
2022/11/29 23:25:46;;;;;;;25.43;13.97;;;0.00;99.90;;;;;;5058663;28;20201;-67
2022/11/29 23:28:15;;;;;;;24.83;14.67;;;0.00;99.90;;;;;;5048543;28;20196;-67
2022/11/29 23:30:42;;;;;;;22.40;13.67;;;0.10;99.90;;;;;;5048001;28;20301;-68
2022/11/29 23:33:09;;;;;;;23.97;14.87;;;0.10;99.90;;;;;;5047841;28;20202;-68
2022/11/29 23:35:35;;;;;;;25.80;14.47;;;0.00;99.90;;;;;;5047959;28;20229;-67
2022/11/29 23:38:02;;;;;;;25.53;14.73;;;0.00;99.90;;;;;;5047835;28;20244;-66
2022/11/29 23:40:29;;;;;;;22.73;13.97;;;0.00;99.90;;;;;;5047676;28;20221;-66
2022/11/29 23:42:56;;;;;;;22.87;14.83;;;0.10;99.90;;;;;;5047803;28;20205;-66
2022/11/29 23:45:24;;;;;;;27.00;14.20;;;0.10;99.90;;;;;;5046770;28;20219;-65
2022/11/29 23:47:51;;;;;;;23.40;13.63;;;0.10;99.90;;;;;;5033797;28;20217;-66
2022/11/29 23:50:17;;;;;;;19.83;12.93;;;0.10;99.90;;;;;;5034081;28;20212;-65
2022/11/29 23:52:44;;;;;;;26.40;14.53;;;0.10;99.90;;;;;;5034159;28;20202;-65
2022/11/29 23:55:13;;;;;;;25.15;15.40;;;0.10;99.90;;;;;;5033635;28;20450;-65
2022/11/29 23:57:40;;;;;;;21.93;14.27;;;0.10;99.90;;;;;;5026232;28;20206;-66
